Time;durP1;ratioP1;P1;durP2;ratioP2;P2;SDS_P1;SDS_P2;PMS_P1;PMS_P2;Temp;Humidity;BMP_temperature;BMP_pressure;BME280_temperature;BME280_humidity;BME280_pressure;Samples;Min_cycle;Max_cycle;Signal;HPM_P1;HPM_P2
2022/07/03 00:02:09;;;;;;;3.17;3.17;;;;;;;;;;5080286;28;20228;-71
2022/07/03 00:04:36;;;;;;;2.53;2.53;;;;;;;18.72;78.93;66164.81;5115480;28;20261;-71
2022/07/03 00:07:02;;;;;;;3.77;3.67;;;;;;;18.67;80.44;66164.47;5116169;28;20217;-71
2022/07/03 00:09:29;;;;;;;3.30;3.30;;;;;;;;;;5116316;28;20712;-71
2022/07/03 00:11:55;;;;;;;3.80;3.60;;;;;;;18.36;83.92;66123.09;5115017;28;20205;-72
2022/07/03 00:14:22;;;;;;;3.47;3.47;;;;;;;;;;5115056;28;20229;-71
2022/07/03 00:16:48;;;;;;;3.90;3.90;;;;;;;18.15;85.80;66099.66;5115471;28;20242;-71
2022/07/03 00:19:15;;;;;;;3.30;3.30;;;;;;;18.08;86.31;66097.09;5115887;28;20193;-71
2022/07/03 00:21:51;;;;;;;3.80;3.60;;;;;;;18.01;86.86;66084.03;5114915;28;20197;-71
2022/07/03 00:24:28;;;;;;;3.33;3.23;;;;;;;17.98;87.25;66083.31;5115150;28;20634;-71
2022/07/03 00:26:57;;;;;;;3.40;3.30;;;;;;;17.96;87.04;66079.00;5116073;28;20619;-71
2022/07/03 00:29:26;;;;;;;3.60;3.60;;;;;;;;;;5114974;28;20341;-71
2022/07/03 00:31:52;;;;;;;3.83;3.73;;;;;;;;;;5114620;28;20247;-71
2022/07/03 00:34:20;;;;;;;3.90;3.90;;;;;;;17.92;85.54;66079.22;5114875;28;20192;-71
2022/07/03 00:36:47;;;;;;;4.07;3.60;;;;;;;17.88;85.90;66073.25;5114961;28;20254;-71
2022/07/03 00:39:14;;;;;;;3.37;3.37;;;;;;;17.78;86.90;66058.91;5114601;28;20228;-71
2022/07/03 00:41:43;;;;;;;3.87;3.77;;;;;;;17.72;88.27;66052.25;5115445;28;20242;-71
2022/07/03 00:44:09;;;;;;;3.37;3.27;;;;;;;17.64;89.20;66046.47;5115242;28;20233;-71
2022/07/03 00:46:38;;;;;;;3.50;3.40;;;;;;;17.62;89.42;66044.22;5115629;28;20213;-71
2022/07/03 00:49:08;;;;;;;3.13;3.13;;;;;;;17.60;89.79;66049.88;5115217;28;20189;-71
2022/07/03 00:51:38;;;;;;;3.67;3.37;;;;;;;17.61;89.73;66043.13;5114096;28;20223;-71
2022/07/03 00:54:07;;;;;;;3.67;3.67;;;;;;;17.59;89.70;66038.28;5107126;28;20202;-71
2022/07/03 00:56:37;;;;;;;3.20;3.20;;;;;;;17.52;89.43;66030.47;5113179;28;20220;-71
2022/07/03 00:59:03;;;;;;;3.40;3.20;;;;;;;17.52;88.39;66035.72;5115688;28;20218;-71
2022/07/03 01:01:34;;;;;;;3.90;3.80;;;;;;;17.54;87.93;66040.56;5115303;28;20245;-71
2022/07/03 01:04:22;;;;;;;2.80;2.80;;;;;;;17.47;88.12;66025.44;5113860;28;20232;-71
2022/07/03 01:06:57;;;;;;;3.60;3.60;;;;;;;17.43;89.12;66020.41;5101098;28;20633;-71
2022/07/03 01:09:44;;;;;;;3.30;3.30;;;;;;;17.42;90.28;66027.72;5113506;28;20231;-71
2022/07/03 01:12:23;;;;;;;3.60;3.50;;;;;;;17.41;90.41;66020.81;5114164;28;20248;-71
2022/07/03 01:15:04;;;;;;;3.77;3.50;;;;;;;17.33;91.03;66015.63;5114513;28;20675;-73
2022/07/03 01:17:39;;;;;;;3.60;3.60;;;;;;;17.32;91.12;66009.28;5114775;28;20201;-73
2022/07/03 01:20:07;;;;;;;3.67;3.67;;;;;;;17.26;91.07;66005.19;5114746;28;20200;-73
2022/07/03 01:22:42;;;;;;;3.40;3.40;;;;;;;17.21;91.08;65999.06;5113597;28;20240;-71
2022/07/03 01:25:16;;;;;;;3.13;3.13;;;;;;;;;;5113978;28;20224;-71
2022/07/03 01:28:00;;;;;;;3.60;3.60;;;;;;;17.13;91.15;65987.53;5113353;28;20698;-71
2022/07/03 01:30:30;;;;;;;3.63;3.63;;;;;;;17.06;91.27;65985.53;5114565;28;20177;-71
2022/07/03 01:33:02;;;;;;;3.90;3.90;;;;;;;17.08;91.31;65989.84;5114321;28;20261;-71
2022/07/03 01:35:32;;;;;;;3.70;3.50;;;;;;;;;;5112463;28;20212;-71
2022/07/03 01:38:05;;;;;;;3.50;3.50;;;;;;;16.97;92.38;65972.88;5114368;28;20205;-71
2022/07/03 01:40:34;;;;;;;3.97;3.97;;;;;;;16.91;92.98;65966.75;5113873;28;20543;-71
2022/07/03 01:43:02;;;;;;;3.53;3.53;;;;;;;;;;5114192;28;20239;-71
2022/07/03 01:45:31;;;;;;;3.90;3.90;;;;;;;16.86;94.46;65961.19;5112588;28;20193;-71
2022/07/03 01:47:58;;;;;;;3.63;3.63;;;;;;;16.85;94.61;65964.72;5112844;28;20221;-71
2022/07/03 01:50:26;;;;;;;3.70;3.70;;;;;;;16.85;94.72;65959.50;5113715;28;20594;-71
2022/07/03 01:52:53;;;;;;;4.17;4.17;;;;;;;16.86;95.39;65966.44;5095791;28;20244;-71
2022/07/03 01:55:20;;;;;;;4.00;4.00;;;;;;;16.80;95.29;65951.31;5096438;28;20201;-71
2022/07/03 01:57:49;;;;;;;4.50;3.93;;;;;;;16.68;96.04;65938.47;5113277;28;20240;-71
2022/07/03 02:00:19;;;;;;;3.70;3.70;;;;;;;16.65;96.39;65943.00;5109250;28;20212;-71
2022/07/03 02:03:04;;;;;;;4.23;4.23;;;;;;;16.62;96.10;65937.03;5111761;28;20240;-71
2022/07/03 02:05:38;;;;;;;4.30;4.20;;;;;;;16.65;95.75;65940.38;5113023;28;20219;-71
2022/07/03 02:08:23;;;;;;;7.70;4.20;;;;;;;;;;5093838;28;20178;-72
2022/07/03 02:11:10;;;;;;;4.00;3.90;;;;;;;;;;5103599;28;20216;-71
2022/07/03 02:13:58;;;;;;;3.87;3.57;;;;;;;16.73;94.26;65944.06;5111486;28;20564;-71
2022/07/03 02:16:26;;;;;;;4.20;4.20;;;;;;;16.67;95.18;65939.97;5113995;28;20231;-71
2022/07/03 02:18:58;;;;;;;4.30;4.00;;;;;;;16.70;94.78;65943.34;5114073;28;20261;-71
2022/07/03 02:21:28;;;;;;;4.03;4.03;;;;;;;16.72;94.19;65946.13;5112963;28;20241;-71
2022/07/03 02:24:12;;;;;;;3.77;3.77;;;;;;;;;;5112796;28;20241;-71
2022/07/03 02:26:41;;;;;;;4.53;4.13;;;;;;;16.78;95.13;65955.44;5112587;28;20189;-71
2022/07/03 02:29:17;;;;;;;4.10;4.10;;;;;;;16.77;95.85;65956.38;5113182;28;20230;-71
2022/07/03 02:31:46;;;;;;;4.30;4.20;;;;;;;16.74;96.14;65947.81;5112221;28;20188;-71
2022/07/03 02:34:16;;;;;;;4.13;4.13;;;;;;;16.74;96.71;65948.34;5111970;28;20251;-71
2022/07/03 02:36:47;;;;;;;4.17;4.07;;;;;;;16.70;96.86;65943.34;5113293;28;20212;-71
2022/07/03 02:39:19;;;;;;;4.40;4.20;;;;;;;;;;5112785;28;20220;-71
2022/07/03 02:41:52;;;;;;;4.43;4.10;;;;;;;16.58;97.32;65941.00;5095737;28;20224;-71
2022/07/03 02:44:50;;;;;;;4.10;4.10;;;;;;;16.53;97.39;65922.31;5113769;28;20615;-71
2022/07/03 02:47:28;;;;;;;4.00;3.97;;;;;;;;;;5089750;28;20220;-71
2022/07/03 02:50:10;;;;;;;4.80;4.53;;;;;;;16.48;97.82;65917.28;5112535;28;20200;-71
2022/07/03 02:52:42;;;;;;;4.50;4.00;;;;;;;;;;5112347;28;20248;-72
2022/07/03 02:55:33;;;;;;;4.50;4.30;;;;;;;16.38;99.41;65913.47;5113680;28;20605;-72
2022/07/03 02:58:20;;;;;;;4.80;4.60;;;;;;;16.29;100.00;65898.19;5112685;28;20208;-71
2022/07/03 03:00:57;;;;;;;4.47;4.40;;;;;;;16.23;100.00;65903.09;5108583;28;20223;-71
2022/07/03 03:03:28;;;;;;;3.77;3.57;;;;;;;16.08;100.00;65873.31;5111871;28;20229;-71
2022/07/03 03:06:00;;;;;;;3.97;3.87;;;;;;;16.01;100.00;65878.59;5094976;28;20688;-71
2022/07/03 03:08:42;;;;;;;4.27;4.17;;;;;;;16.04;100.00;65878.75;5093279;28;20236;-72
2022/07/03 03:11:22;;;;;;;4.20;4.00;;;;;;;16.05;100.00;65872.56;5103184;28;20221;-71
2022/07/03 03:13:49;;;;;;;3.87;3.70;;;;;;;;;;5113180;28;20296;-71
2022/07/03 03:16:16;;;;;;;4.83;4.13;;;;;;;16.12;100.00;65890.28;5111132;28;20620;-71
2022/07/03 03:18:45;;;;;;;4.50;4.40;;;;;;;16.13;100.00;65878.84;5093099;28;20194;-72
2022/07/03 03:21:15;;;;;;;4.70;4.70;;;;;;;;;;5103052;28;20651;-71
2022/07/03 03:23:50;;;;;;;4.40;4.40;;;;;;;16.07;100.00;65872.16;5113151;28;20687;-72
2022/07/03 03:26:31;;;;;;;4.23;4.23;;;;;;;16.04;100.00;65868.28;5113428;28;20200;-72
2022/07/03 03:28:59;;;;;;;4.57;4.47;;;;;;;16.04;100.00;65874.06;5111892;28;20604;-71
2022/07/03 03:31:26;;;;;;;5.10;5.00;;;;;;;16.04;100.00;65871.47;5111618;28;20224;-71
2022/07/03 03:33:55;;;;;;;4.63;4.63;;;;;;;16.02;100.00;65866.63;5112144;28;20241;-71
2022/07/03 03:36:21;;;;;;;4.63;4.63;;;;;;;16.02;100.00;65873.91;5113063;28;20213;-71
2022/07/03 03:38:49;;;;;;;5.30;5.30;;;;;;;16.03;100.00;65875.59;5114931;28;20647;-71
2022/07/03 03:41:15;;;;;;;4.93;4.83;;;;;;;15.93;100.00;65859.78;5116518;28;20243;-73
2022/07/03 03:43:44;;;;;;;4.77;4.67;;;;;;;15.89;100.00;65852.69;5116455;28;20291;-72
2022/07/03 03:46:10;;;;;;;4.73;4.63;;;;;;;15.87;100.00;65852.53;5116470;28;20277;-72
2022/07/03 03:48:37;;;;;;;5.47;5.37;;;;;;;15.89;100.00;65860.53;5115735;28;20192;-72
2022/07/03 03:51:05;;;;;;;5.07;4.77;;;;;;;15.83;100.00;65845.44;5115742;28;20194;-72
2022/07/03 03:53:31;;;;;;;4.90;4.70;;;;;;;15.80;100.00;65844.72;5116298;28;20216;-72
2022/07/03 03:56:05;;;;;;;5.50;5.40;;;;;;;;;;5116333;28;20216;-72
2022/07/03 03:58:33;;;;;;;5.17;4.90;;;;;;;15.87;100.00;65858.31;5116945;28;20558;-72
2022/07/03 04:01:02;;;;;;;6.00;5.70;;;;;;;15.86;100.00;65856.63;5115254;28;20220;-72
2022/07/03 04:03:29;;;;;;;5.30;5.10;;;;;;;15.87;100.00;65850.47;5110287;28;20205;-72
2022/07/03 04:05:56;;;;;;;6.20;6.07;;;;;;;15.89;100.00;65854.75;5115017;28;20272;-72
2022/07/03 04:08:25;;;;;;;5.83;5.70;;;;;;;15.89;100.00;65855.31;5116139;28;20216;-72
2022/07/03 04:10:51;;;;;;;4.83;4.83;;;;;;;15.90;100.00;65855.88;5115062;28;20193;-72
2022/07/03 04:13:21;;;;;;;5.50;5.40;;;;;;;15.92;100.00;65858.63;5114056;28;20240;-72
2022/07/03 04:15:49;;;;;;;6.03;5.50;;;;;;;15.82;100.00;65846.97;5116012;28;20209;-72
2022/07/03 04:18:16;;;;;;;6.40;6.30;;;;;;;;;;5116217;28;20181;-72
2022/07/03 04:20:42;;;;;;;6.20;5.77;;;;;;;15.63;100.00;65826.91;5115174;28;20693;-72
2022/07/03 04:23:09;;;;;;;6.47;6.27;;;;;;;15.66;100.00;65830.25;5096910;28;20237;-72
2022/07/03 04:25:35;;;;;;;7.03;6.83;;;;;;;15.64;100.00;65841.13;5115109;28;20190;-72
2022/07/03 04:28:02;;;;;;;5.73;5.63;;;;;;;;;;5114998;28;20209;-72
2022/07/03 04:30:46;;;;;;;5.87;5.67;;;;;;;15.56;100.00;65824.31;5114845;28;20196;-72
2022/07/03 04:33:12;;;;;;;6.40;6.20;;;;;;;15.60;100.00;65828.78;5113951;28;20249;-72
2022/07/03 04:35:38;;;;;;;5.93;5.90;;;;;;;15.66;100.00;65834.94;5114320;28;20541;-72
2022/07/03 04:38:05;;;;;;;6.17;6.03;;;;;;;15.76;100.00;65840.81;5114706;28;20220;-72
2022/07/03 04:40:31;;;;;;;7.50;7.03;;;;;;;15.83;100.00;65851.25;5115714;28;20220;-72
2022/07/03 04:42:58;;;;;;;6.83;6.73;;;;;;;15.86;100.00;65856.63;5113645;28;20240;-72
2022/07/03 04:45:24;;;;;;;6.07;5.77;;;;;;;15.88;100.00;65856.81;5115412;28;20212;-72
2022/07/03 04:47:51;;;;;;;5.97;5.67;;;;;;;15.92;100.00;65858.09;5114330;28;20666;-72
2022/07/03 04:50:17;;;;;;;6.50;6.30;;;;;;;15.96;100.00;65862.53;5114444;28;20236;-72
2022/07/03 04:52:43;;;;;;;6.97;6.53;;;;;;;16.00;100.00;65869.59;5115094;28;20234;-72
2022/07/03 04:55:10;;;;;;;9.27;7.10;;;;;;;16.02;100.00;65869.22;5115205;28;20663;-72
2022/07/03 04:57:36;;;;;;;6.53;6.27;;;;;;;16.03;100.00;65869.78;5115386;28;20671;-72
2022/07/03 05:00:04;;;;;;;6.93;6.73;;;;;;;16.03;100.00;65880.81;5113003;28;20600;-72
2022/07/03 05:02:30;;;;;;;6.40;6.20;;;;;;;16.08;100.00;65881.16;5108782;28;20248;-72
2022/07/03 05:04:57;;;;;;;7.50;7.03;;;;;;;16.04;100.00;65878.75;5113294;28;20207;-73
2022/07/03 05:07:23;;;;;;;7.40;7.20;;;;;;;15.90;100.00;65866.88;5113189;28;20583;-73
2022/07/03 05:09:50;;;;;;;7.33;7.23;;;;;;;16.00;100.00;65864.38;5115179;28;20189;-73
2022/07/03 05:12:16;;;;;;;6.93;6.73;;;;;;;;;;5113871;28;20217;-72
2022/07/03 05:14:44;;;;;;;8.00;6.50;;;;;;;16.20;100.00;65886.66;5111776;28;20237;-72
2022/07/03 05:17:10;;;;;;;7.70;7.50;;;;;;;16.29;100.00;65898.19;5113803;28;20197;-72
2022/07/03 05:19:38;;;;;;;8.03;7.73;;;;;;;16.34;100.00;65911.63;5114007;28;20177;-72
2022/07/03 05:22:04;;;;;;;7.87;7.47;;;;;;;16.42;100.00;65921.09;5113949;28;20666;-72
2022/07/03 05:24:31;;;;;;;8.20;7.90;;;;;;;16.64;100.00;65936.63;5114085;28;20228;-72
2022/07/03 05:26:57;;;;;;;7.93;7.63;;;;;;;16.67;100.00;65939.97;5114589;28;20220;-72
2022/07/03 05:29:23;;;;;;;7.23;7.03;;;;;;;;;;5113582;28;20276;-72
2022/07/03 05:31:50;;;;;;;7.93;7.63;;;;;;;16.91;100.00;65966.19;5113727;28;20220;-72
2022/07/03 05:34:16;;;;;;;7.77;7.50;;;;;;;16.93;100.00;65971.03;5113525;28;20237;-73
2022/07/03 05:36:43;;;;;;;6.83;6.70;;;;;;;17.02;100.00;65979.00;5113647;28;20230;-72
2022/07/03 05:41:54;;;;;;;8.27;7.70;;;;;;;17.18;100.00;65996.28;5096064;28;20216;-73
2022/07/03 05:44:20;;;;;;;8.43;8.17;;;;;;;17.34;99.62;66010.94;5114256;28;20189;-73
2022/07/03 05:46:47;;;;;;;9.20;8.50;;;;;;;17.47;100.00;66030.13;5112947;28;20184;-73
2022/07/03 05:49:13;;;;;;;8.50;8.30;;;;;;;;;;5114197;28;20177;-73
2022/07/03 05:51:40;;;;;;;8.83;8.47;;;;;;;17.65;98.01;66044.97;5114139;28;20735;-73
2022/07/03 05:54:06;;;;;;;9.20;8.90;;;;;;;17.69;96.07;66059.38;5112556;28;20197;-73
2022/07/03 05:56:33;;;;;;;10.27;9.63;;;;;;;17.84;93.84;66076.66;5114098;28;20213;-73
2022/07/03 05:58:59;;;;;;;9.57;8.80;;;;;;;17.86;93.88;66068.41;5114075;28;20659;-73
2022/07/03 06:01:25;;;;;;;10.43;9.93;;;;;;;;;;5103973;28;20186;-73
2022/07/03 06:03:52;;;;;;;11.17;10.20;;;;;;;18.00;91.99;66088.72;5095956;28;20216;-73
2022/07/03 06:06:18;;;;;;;10.50;10.07;;;;;;;18.13;92.40;66097.97;5111235;28;20227;-73
2022/07/03 06:08:45;;;;;;;10.97;10.47;;;;;;;18.16;91.32;66095.50;5113963;28;20189;-73
2022/07/03 06:11:11;;;;;;;10.27;9.73;;;;;;;18.24;89.99;66109.69;5113159;28;20232;-74
2022/07/03 06:13:38;;;;;;;9.50;9.20;;;;;;;18.31;89.73;66117.50;5113048;28;20209;-73
2022/07/03 06:16:04;;;;;;;9.97;9.57;;;;;;;18.36;89.13;66127.75;5112910;28;20194;-73
2022/07/03 06:18:30;;;;;;;8.50;8.27;;;;;;;;;;5113063;28;20189;-73
2022/07/03 06:20:57;;;;;;;9.80;9.43;;;;;;;18.57;88.15;66148.03;5114339;28;20586;-73
2022/07/03 06:23:23;;;;;;;9.07;8.77;;;;;;;18.68;86.88;66160.34;5113668;28;20209;-74
2022/07/03 06:26:09;;;;;;;9.53;9.07;;;;;;;18.73;87.91;66165.91;5111331;28;20693;-74
2022/07/03 06:28:36;;;;;;;8.73;8.50;;;;;;;;;;5095298;28;20220;-73
2022/07/03 06:31:02;;;;;;;10.43;9.47;;;;;;;18.93;84.95;66188.25;5112909;28;20189;-73
2022/07/03 06:33:28;;;;;;;9.57;9.27;;;;;;;;;;5113589;28;20209;-73
2022/07/03 06:35:55;;;;;;;9.67;9.17;;;;;;;;;;5112772;28;20213;-74
2022/07/03 06:38:21;;;;;;;8.70;8.30;;;;;;;19.16;84.24;66212.81;5112845;28;20731;-74
2022/07/03 06:40:47;;;;;;;8.93;8.43;;;;;;;;;;5112955;28;20189;-73
2022/07/03 06:43:14;;;;;;;6.97;6.87;;;;;;;19.28;84.24;66223.00;5113264;28;20296;-74
2022/07/03 06:45:40;;;;;;;9.27;8.33;;;;;;;19.30;83.14;66225.81;5118172;28;20245;-73
2022/07/03 06:48:07;;;;;;;7.47;7.37;;;;;;;;;;5114557;28;20232;-73
2022/07/03 06:50:33;;;;;;;7.70;7.30;;;;;;;19.52;84.39;66249.84;5113769;28;20224;-73
2022/07/03 06:53:00;;;;;;;7.23;6.93;;;;;;;19.56;83.52;66253.72;5112203;28;20216;-73
2022/07/03 06:55:27;;;;;;;7.23;6.93;;;;;;;19.69;80.88;66268.28;5113917;28;20232;-73
2022/07/03 06:57:53;;;;;;;7.43;6.77;;;;;;;;;;5111996;28;20224;-73
2022/07/03 07:00:20;;;;;;;6.77;6.57;;;;;;;19.72;78.97;66274.28;5104370;28;20217;-73
2022/07/03 07:02:46;;;;;;;7.33;6.97;;;;;;;;;;5092937;28;20249;-74
2022/07/03 07:05:12;;;;;;;6.00;5.83;;;;;;;19.99;78.92;66307.06;5103268;28;20227;-73
2022/07/03 07:07:39;;;;;;;6.80;6.30;;;;;;;20.00;78.48;66302.34;5112569;28;20217;-74
2022/07/03 07:10:05;;;;;;;6.50;6.00;;;;;;;;;;5113327;28;20220;-74
2022/07/03 07:12:32;;;;;;;5.73;5.50;;;;;;;;;;5097679;28;20300;-74
2022/07/03 07:15:04;;;;;;;7.03;6.43;;;;;;;;;;5117395;28;20208;-74
2022/07/03 07:17:30;;;;;;;6.20;5.87;;;;;;;20.17;78.46;66323.44;5115178;28;20228;-73
2022/07/03 07:19:57;;;;;;;10.03;5.97;;;;;;;20.19;76.93;66330.94;5116356;28;20272;-74
2022/07/03 07:22:25;;;;;;;6.33;6.03;;;;;;;;;;5116968;28;20584;-74
2022/07/03 07:24:52;;;;;;;6.13;5.93;;;;;;;;;;5116446;28;20210;-73
2022/07/03 07:27:18;;;;;;;8.43;6.13;;;;;;;20.40;77.70;66349.16;5114842;28;20540;-73
2022/07/03 07:29:45;;;;;;;7.27;6.97;;;;;;;20.32;78.19;66338.13;5117239;28;20213;-74
2022/07/03 07:32:11;;;;;;;6.60;6.17;;;;;;;;;;5116274;28;20263;-73
2022/07/03 07:34:38;;;;;;;5.97;5.10;;;;;;;20.48;77.34;66350.19;5117057;28;20246;-73
2022/07/03 07:37:04;;;;;;;6.23;5.93;;;;;;;20.59;75.76;66361.94;5116074;28;20224;-73
2022/07/03 07:39:31;;;;;;;6.07;5.93;;;;;;;20.66;74.31;66369.78;5116703;28;20205;-74
2022/07/03 07:41:57;;;;;;;5.63;5.17;;;;;;;20.69;78.42;66378.41;5116210;28;20231;-73
2022/07/03 07:44:24;;;;;;;7.30;6.80;;;;;;;20.73;73.30;66385.53;5116851;28;20547;-74
2022/07/03 07:46:50;;;;;;;5.70;5.50;;;;;;;20.82;74.33;66392.94;5116655;28;20217;-74
2022/07/03 07:49:17;;;;;;;5.87;5.40;;;;;;;;;;5116034;28;20655;-74
2022/07/03 07:51:43;;;;;;;5.93;5.73;;;;;;;20.86;74.32;66399.50;5115989;28;20670;-74
2022/07/03 07:54:09;;;;;;;5.67;5.47;;;;;;;;;;5116364;28;20689;-74
2022/07/03 07:56:36;;;;;;;5.57;5.07;;;;;;;20.96;73.91;66410.69;5114965;28;20236;-73
2022/07/03 07:59:02;;;;;;;5.33;5.10;;;;;;;21.08;74.40;66426.19;5115652;28;20219;-71
2022/07/03 08:06:58;;;;;;;6.57;6.20;;;;;;;21.24;72.88;66441.44;5112557;28;20222;-72
2022/07/03 08:09:25;;;;;;;5.90;5.70;;;;;;;;;;5116411;28;20212;-71
2022/07/03 08:11:51;;;;;;;6.43;6.23;;;;;;;21.23;72.62;66437.69;5116259;28;20606;-72
2022/07/03 08:14:18;;;;;;;6.13;5.80;;;;;;;;;;5115146;28;20284;-73
2022/07/03 08:16:46;;;;;;;6.50;6.30;;;;;;;21.35;71.46;66453.22;5115197;28;20276;-72
2022/07/03 08:19:13;;;;;;;6.63;6.40;;;;;;;21.32;70.98;66452.50;5112250;28;20197;-73
2022/07/03 08:21:40;;;;;;;10.43;5.30;;;;;;;21.27;71.87;66442.16;5115345;28;20597;-72
2022/07/03 08:24:07;;;;;;;8.00;7.27;;;;;;;21.34;70.90;66444.16;5113686;28;20216;-73
2022/07/03 08:26:33;;;;;;;6.27;6.00;;;;;;;;;;5098908;28;20842;-71
2022/07/03 08:29:00;;;;;;;5.23;5.00;;;;;;;;;;5113589;28;20659;-71
2022/07/03 08:31:26;;;;;;;6.00;5.83;;;;;;;21.55;70.42;66480.31;5112786;28;20264;-71
2022/07/03 08:33:52;;;;;;;10.57;5.13;;;;;;;21.60;71.88;66481.19;5113251;28;20737;-72
2022/07/03 08:36:19;;;;;;;5.43;5.03;;;;;;;21.60;70.74;66478.53;5111587;28;20220;-72
2022/07/03 08:38:46;;;;;;;4.87;4.67;;;;;;;21.55;69.40;66475.03;5112286;28;20199;-71
2022/07/03 08:41:12;;;;;;;6.47;5.17;;;;;;;;;;5110611;28;20223;-73
2022/07/03 08:43:41;;;;;;;4.63;4.43;;;;;;;21.51;70.57;66467.94;5111601;28;20733;-72
2022/07/03 08:46:10;;;;;;;5.73;5.27;;;;;;;21.56;71.27;66476.16;5114106;28;20269;-72
2022/07/03 08:48:37;;;;;;;4.47;4.03;;;;;;;21.66;71.19;66484.72;5115920;28;20196;-73
2022/07/03 08:51:03;;;;;;;5.70;5.50;;;;;;;21.65;69.50;66486.78;5115555;28;20238;-72
2022/07/03 08:53:30;;;;;;;6.20;5.70;;;;;;;;;;5113256;28;20647;-73
2022/07/03 08:55:56;;;;;;;8.83;4.83;;;;;;;21.80;69.45;66500.38;5115708;28;20587;-73
2022/07/03 08:58:23;;;;;;;6.13;5.73;;;;;;;21.79;67.68;66501.91;5114397;28;20261;-73
2022/07/03 09:00:49;;;;;;;5.90;5.30;;;;;;;;;;5115147;28;20246;-74
2022/07/03 09:03:16;;;;;;;9.77;5.13;;;;;;;21.94;67.47;66515.50;5114712;28;20209;-73
2022/07/03 09:05:43;;;;;;;4.37;4.30;;;;;;;22.10;70.30;66536.06;5114885;28;20275;-72
2022/07/03 09:08:09;;;;;;;4.97;4.67;;;;;;;;;;5113628;28;20177;-72
2022/07/03 09:10:36;;;;;;;4.63;4.53;;;;;;;22.30;66.04;66554.69;5114859;28;20667;-72
2022/07/03 09:13:02;;;;;;;11.10;4.37;;;;;;;;;;5114798;28;20220;-73
2022/07/03 09:15:29;;;;;;;4.60;4.30;;;;;;;22.18;64.93;66545.00;5113502;28;20224;-72
2022/07/03 09:18:04;;;;;;;4.43;4.33;;;;;;;22.18;64.30;66537.09;5114507;28;20185;-72
2022/07/03 09:20:31;;;;;;;4.40;4.20;;;;;;;;;;5113671;28;20253;-72
2022/07/03 09:23:16;;;;;;;4.33;3.90;;;;;;;22.31;63.98;66555.81;5106532;28;20295;-73
2022/07/03 09:25:57;;;;;;;4.00;3.93;;;;;;;22.32;64.79;66559.56;5111515;28;20193;-72
2022/07/03 09:28:40;;;;;;;5.50;4.97;;;;;;;22.43;65.45;66569.22;5113637;28;20647;-73
2022/07/03 09:31:07;;;;;;;3.80;3.80;;;;;;;;;;5109221;28;20208;-70
2022/07/03 09:33:33;;;;;;;3.77;3.60;;;;;;;;;;5112758;28;20309;-72
2022/07/03 09:36:00;;;;;;;4.37;4.20;;;;;;;22.59;63.41;66581.31;5108586;28;20247;-72
2022/07/03 09:38:26;;;;;;;3.97;3.70;;;;;;;22.65;64.87;66596.53;5108689;28;20189;-72
2022/07/03 09:40:55;;;;;;;2.83;2.73;;;;;;;22.83;63.66;66615.56;5112230;28;20219;-71
2022/07/03 09:43:28;;;;;;;3.37;3.30;;;;;;;22.91;63.33;66624.56;5113095;28;20710;-71
2022/07/03 09:45:57;;;;;;;3.60;3.40;;;;;;;;;;5066468;28;20185;-72
2022/07/03 09:48:24;;;;;;;2.43;2.43;;;;;;;;;;5088787;28;20217;-72
2022/07/03 09:51:09;;;;;;;4.13;3.57;;;;;;;;;;5108521;28;20598;-72
2022/07/03 09:54:02;;;;;;;3.20;3.00;;;;;;;23.05;65.32;66637.59;5111153;28;20721;-73
2022/07/03 09:56:35;;;;;;;4.30;3.57;;;;;;;;;;5114131;28;20220;-73
2022/07/03 09:59:11;;;;;;;2.90;2.80;;;;;;;22.85;65.15;66615.16;5114346;28;20200;-73
2022/07/03 10:01:40;;;;;;;5.97;3.50;;;;;;;22.85;67.04;66615.16;5112933;28;20196;-73
2022/07/03 10:04:13;;;;;;;3.27;3.27;;;;;;;22.72;65.13;66601.72;5113736;28;20240;-72
2022/07/03 10:06:57;;;;;;;3.20;3.10;;;;;;;22.96;64.80;66628.06;5114005;28;20181;-73
2022/07/03 10:09:25;;;;;;;4.43;3.20;;;;;;;22.95;64.87;66626.94;5114209;27;20565;-71
2022/07/03 10:11:53;;;;;;;4.00;3.80;;;;;;;22.80;64.29;66610.69;5113633;28;20199;-72
2022/07/03 10:14:20;;;;;;;3.57;3.57;;;;;;;;;;5113765;28;20280;-71
2022/07/03 10:16:48;;;;;;;3.07;2.97;;;;;;;22.97;63.33;66633.94;5113828;28;20225;-71
2022/07/03 10:19:17;;;;;;;3.50;3.17;;;;;;;;;;5113547;28;20193;-71
2022/07/03 10:21:47;;;;;;;3.60;3.50;;;;;;;;;;5114349;28;20700;-71
2022/07/03 10:24:15;;;;;;;2.77;2.67;;;;;;;23.06;63.47;66633.97;5114050;28;20205;-72
2022/07/03 10:26:42;;;;;;;4.03;3.87;;;;;;;22.97;64.78;66628.63;5114455;28;20228;-73
2022/07/03 10:29:10;;;;;;;3.47;3.10;;;;;;;;;;5113990;28;20213;-72
2022/07/03 10:31:39;;;;;;;3.63;3.57;;;;;;;;;;5113489;28;20250;-72
2022/07/03 10:34:06;;;;;;;3.30;3.10;;;;;;;;;;5113929;28;20209;-72
2022/07/03 10:36:36;;;;;;;3.20;3.20;;;;;;;23.25;63.01;66660.00;5113540;28;20299;-72
2022/07/03 10:39:05;;;;;;;3.10;3.10;;;;;;;;;;5114250;28;20585;-72
2022/07/03 10:47:41;;;;;;;3.83;3.60;;;;;;;22.73;64.84;66602.84;5115974;28;20181;-72
2022/07/03 10:50:12;;;;;;;3.50;3.40;;;;;;;23.08;65.00;66640.97;5117564;28;20177;-72
2022/07/03 10:52:39;;;;;;;3.57;3.37;;;;;;;23.18;64.92;66651.59;5118149;28;20263;-70
2022/07/03 10:55:07;;;;;;;3.20;3.00;;;;;;;23.35;66.05;66665.91;5117201;28;20205;-72
2022/07/03 10:57:35;;;;;;;4.00;3.90;;;;;;;23.35;66.37;66673.28;5117940;28;20651;-72
2022/07/03 11:00:05;;;;;;;3.37;3.17;;;;;;;23.19;64.01;66653.28;5117478;28;20220;-73
2022/07/03 11:02:37;;;;;;;4.33;4.23;;;;;;;23.22;65.99;66661.94;5113740;28;20249;-72
2022/07/03 11:05:06;;;;;;;2.87;2.67;;;;;;;23.43;64.37;66679.03;5113750;28;20209;-70
2022/07/03 11:08:05;;;;;;;2.50;2.43;;;;;;;23.51;63.07;66693.31;5100247;28;20207;-72
2022/07/03 11:10:32;;;;;;;3.23;2.97;;;;;;;;;;5111214;28;20197;-71
2022/07/03 11:13:04;;;;;;;3.00;2.80;;;;;;;23.65;64.28;66709.03;5117431;28;20580;-71
2022/07/03 11:15:31;;;;;;;2.70;2.50;;;;;;;;;;5099398;28;20227;-72
2022/07/03 11:20:33;;;;;;;3.00;2.80;;;;;;;;;;5117432;28;20233;-72
2022/07/03 11:23:07;;;;;;;4.37;3.30;;;;;;;;;;5116416;28;20300;-72
2022/07/03 11:25:40;;;;;;;7.73;2.70;;;;;;;;;;5114500;28;20659;-71
2022/07/03 11:28:07;;;;;;;2.57;2.57;;;;;;;23.76;62.06;66716.06;5116437;28;20221;-72
2022/07/03 11:31:16;;;;;;;2.90;2.80;;;;;;;23.54;61.86;66691.38;5104744;28;20197;-72
2022/07/03 11:33:47;;;;;;;3.07;2.90;;;;;;;23.62;61.50;66695.06;5096527;28;20615;-72
2022/07/03 11:36:16;;;;;;;2.70;2.70;;;;;;;;;;5096381;28;20197;-71
2022/07/03 11:38:43;;;;;;;3.03;2.83;;;;;;;;;;5099971;28;20228;-71
2022/07/03 11:41:12;;;;;;;2.33;2.33;;;;;;;23.73;62.53;66712.16;5115931;28;20185;-72
2022/07/03 11:43:51;;;;;;;3.00;2.90;;;;;;;23.81;62.19;66721.13;5116568;28;20232;-72
2022/07/03 11:46:18;;;;;;;3.97;3.77;;;;;;;;;;5116273;28;20550;-73
2022/07/03 11:48:45;;;;;;;4.07;3.97;;;;;;;;;;5116528;28;20189;-72
2022/07/03 11:51:12;;;;;;;3.43;3.23;;;;;;;23.59;62.73;66691.69;5117005;28;20200;-73
2022/07/03 11:53:39;;;;;;;3.30;3.30;;;;;;;;;;5115593;28;20270;-73
2022/07/03 11:56:11;;;;;;;2.97;2.77;;;;;;;23.88;62.40;66729.53;5116369;28;20292;-73
2022/07/03 11:58:51;;;;;;;3.30;2.87;;;;;;;;;;5114527;28;20193;-73
2022/07/03 12:01:28;;;;;;;3.07;2.73;;;;;;;23.61;62.16;66713.06;5116361;28;20536;-73
2022/07/03 12:04:12;;;;;;;2.70;2.50;;;;;;;;;;5110826;28;20613;-72
2022/07/03 12:06:45;;;;;;;3.00;2.90;;;;;;;23.65;61.27;66706.41;5115660;28;20706;-72
2022/07/03 12:09:17;;;;;;;3.00;2.90;;;;;;;;;;5115200;28;20628;-72
2022/07/03 12:12:10;;;;;;;2.83;2.73;;;;;;;23.85;61.28;66730.88;5111421;28;20273;-73
2022/07/03 12:14:48;;;;;;;2.60;2.60;;;;;;;23.99;64.94;66743.94;5115305;28;20185;-72
2022/07/03 12:17:24;;;;;;;2.97;2.77;;;;;;;24.19;64.10;66773.78;5116383;28;20573;-72
2022/07/03 12:19:58;;;;;;;1.90;1.90;;;;;;;24.09;62.93;66757.25;5115131;28;20693;-71
2022/07/03 12:22:31;;;;;;;2.73;2.63;;;;;;;23.89;60.91;66732.72;5111332;28;20632;-71
2022/07/03 12:25:05;;;;;;;2.10;2.10;;;;;;;;;;5103129;28;20214;-74
2022/07/03 12:27:32;;;;;;;2.63;2.63;;;;;;;;;;5096187;28;20676;-72
2022/07/03 12:29:58;;;;;;;2.20;2.10;;;;;;;;;;5110577;28;20264;-71
2022/07/03 12:32:25;;;;;;;2.90;2.90;;;;;;;23.85;62.02;66720.28;5113448;27;20270;-73
2022/07/03 12:34:52;;;;;;;1.93;1.93;;;;;;;;;;5115572;28;20524;-73
2022/07/03 12:37:35;;;;;;;1.63;1.53;;;;;;;24.09;58.88;66752.50;5115752;28;20189;-72
2022/07/03 12:40:02;;;;;;;2.67;2.57;;;;;;;24.01;59.96;66742.97;5115604;28;20177;-73
2022/07/03 12:42:29;;;;;;;5.20;2.47;;;;;;;;;;5115423;28;20197;-72
2022/07/03 12:45:00;;;;;;;1.90;1.90;;;;;;;24.01;61.29;66742.97;5115423;28;20810;-72